This is the latest recevied weather packets stored in our database for station/object SQ6PCH-10. If no packets are shown the sender has not sent any weather packets the latest 10 day(s).
| Time | Temp. | Humidity | Pressure | Rain* | Wind** | Luminosity | Snow |
|---|---|---|---|---|---|---|---|
| 1777660056 | 16.11° C | 41% | 1010.3 hPa | - | - | - | - |
| 1777659456 | 16.67° C | 41% | 1010.2 hPa | - | - | - | - |
| 1777658856 | 17.22° C | 39% | 1010.1 hPa | - | - | - | - |
| 1777658256 | 17.78° C | 37% | 1010 hPa | - | - | - | - |
| 1777657656 | 18.89° C | 34% | 1010.1 hPa | - | - | - | - |
| 1777657056 | 21.11° C | 30% | 1010 hPa | - | - | - | - |
| 1777656455 | 21.67° C | 29% | 1010 hPa | - | - | - | - |
| 1777655855 | 21.67° C | 29% | 1009.8 hPa | - | - | - | - |
| 1777655255 | 21.11° C | 29% | 1009.9 hPa | - | - | - | - |
| 1777654655 | 21.67° C | 28% | 1010 hPa | - | - | - | - |
| 1777654055 | 23.33° C | 25% | 1010 hPa | - | - | - | - |
| 1777653455 | 22.78° C | 26% | 1010.1 hPa | - | - | - | - |
| 1777652855 | 23.33° C | 24% | 1010.1 hPa | - | - | - | - |
| 1777652254 | 23.33° C | 24% | 1010.1 hPa | - | - | - | - |
| 1777651654 | 24.44° C | 23% | 1010.1 hPa | - | - | - | - |
| 1777651054 | 23.89° C | 22% | 1010.1 hPa | - | - | - | - |
| 1777650454 | 25° C | 21% | 1010.2 hPa | - | - | - | - |
| 1777649854 | 26.11° C | 20% | 1010.3 hPa | - | - | - | - |
| 1777649253 | 25.56° C | 20% | 1010.3 hPa | - | - | - | - |
| 1777648653 | 25.56° C | 20% | 1010.3 hPa | - | - | - | - |
| 1777648053 | 26.11° C | 19% | 1010.5 hPa | - | - | - | - |
| 1777647452 | 26.67° C | 19% | 1010.5 hPa | - | - | - | - |
| 1777646852 | 27.22° C | 18% | 1010.6 hPa | - | - | - | - |
| 1777646252 | 27.22° C | 19% | 1010.7 hPa | - | - | - | - |
| 1777645652 | 26.67° C | 18% | 1010.6 hPa | - | - | - | - |
* Rain since midnight (hover to see other rain measurements)
** Current wind speed in m/s (hover to see current wind gust speed)